sensor_id;sensor_type;location;lat;lon;timestamp;temperature;humidity
13998;DHT22;7074;51.508;7.018;2023-02-03T00:00:26;10.00;99.90
13998;DHT22;7074;51.508;7.018;2023-02-03T00:02:55;10.00;99.90
13998;DHT22;7074;51.508;7.018;2023-02-03T00:05:22;10.00;99.90
13998;DHT22;7074;51.508;7.018;2023-02-03T00:07:51;10.00;99.90
13998;DHT22;7074;51.508;7.018;2023-02-03T00:10:19;10.00;99.90
13998;DHT22;7074;51.508;7.018;2023-02-03T00:12:47;10.00;99.90
13998;DHT22;7074;51.508;7.018;2023-02-03T00:15:15;10.10;99.90
13998;DHT22;7074;51.508;7.018;2023-02-03T00:17:42;10.10;99.90
13998;DHT22;7074;51.508;7.018;2023-02-03T00:20:10;10.10;99.90
13998;DHT22;7074;51.508;7.018;2023-02-03T00:22:37;10.10;99.90
13998;DHT22;7074;51.508;7.018;2023-02-03T00:25:07;10.10;99.90
13998;DHT22;7074;51.508;7.018;2023-02-03T00:27:34;10.10;99.90
13998;DHT22;7074;51.508;7.018;2023-02-03T00:30:01;10.00;99.90
13998;DHT22;7074;51.508;7.018;2023-02-03T00:32:29;10.00;99.90
13998;DHT22;7074;51.508;7.018;2023-02-03T00:34:56;10.10;99.90
13998;DHT22;7074;51.508;7.018;2023-02-03T00:37:23;10.10;99.90
13998;DHT22;7074;51.508;7.018;2023-02-03T00:39:56;10.10;99.90
13998;DHT22;7074;51.508;7.018;2023-02-03T00:42:24;10.10;99.90
13998;DHT22;7074;51.508;7.018;2023-02-03T00:44:52;10.10;99.90
13998;DHT22;7074;51.508;7.018;2023-02-03T00:47:19;10.10;99.90
13998;DHT22;7074;51.508;7.018;2023-02-03T00:49:46;10.00;99.90
13998;DHT22;7074;51.508;7.018;2023-02-03T00:52:15;10.10;99.90
13998;DHT22;7074;51.508;7.018;2023-02-03T00:54:43;10.10;99.90
13998;DHT22;7074;51.508;7.018;2023-02-03T00:57:10;10.10;99.90
13998;DHT22;7074;51.508;7.018;2023-02-03T00:59:39;10.10;99.90
13998;DHT22;7074;51.508;7.018;2023-02-03T01:02:08;10.10;99.90
13998;DHT22;7074;51.508;7.018;2023-02-03T01:04:35;10.10;99.90
13998;DHT22;7074;51.508;7.018;2023-02-03T01:07:03;10.10;99.90
13998;DHT22;7074;51.508;7.018;2023-02-03T01:09:33;10.10;99.90
13998;DHT22;7074;51.508;7.018;2023-02-03T01:12:00;10.10;99.90
13998;DHT22;7074;51.508;7.018;2023-02-03T01:14:27;10.10;99.90
13998;DHT22;7074;51.508;7.018;2023-02-03T01:16:57;10.00;99.90
13998;DHT22;7074;51.508;7.018;2023-02-03T01:19:24;10.00;99.90
13998;DHT22;7074;51.508;7.018;2023-02-03T01:21:52;10.10;99.90
13998;DHT22;7074;51.508;7.018;2023-02-03T01:24:19;10.10;99.90
13998;DHT22;7074;51.508;7.018;2023-02-03T01:26:46;10.00;99.90
13998;DHT22;7074;51.508;7.018;2023-02-03T01:29:13;10.10;99.90
13998;DHT22;7074;51.508;7.018;2023-02-03T01:31:41;10.10;99.90
13998;DHT22;7074;51.508;7.018;2023-02-03T01:34:11;10.10;99.90
13998;DHT22;7074;51.508;7.018;2023-02-03T01:36:42;10.10;99.90
13998;DHT22;7074;51.508;7.018;2023-02-03T01:39:11;10.10;99.90
13998;DHT22;7074;51.508;7.018;2023-02-03T01:41:40;10.10;99.90
13998;DHT22;7074;51.508;7.018;2023-02-03T01:44:37;10.10;99.90
13998;DHT22;7074;51.508;7.018;2023-02-03T01:47:09;10.10;99.90
13998;DHT22;7074;51.508;7.018;2023-02-03T01:49:42;10.10;99.90
13998;DHT22;7074;51.508;7.018;2023-02-03T01:52:10;10.10;99.90
13998;DHT22;7074;51.508;7.018;2023-02-03T01:54:40;10.10;99.90
13998;DHT22;7074;51.508;7.018;2023-02-03T01:57:14;10.10;99.90
13998;DHT22;7074;51.508;7.018;2023-02-03T01:59:43;10.10;99.90
13998;DHT22;7074;51.508;7.018;2023-02-03T02:02:11;10.10;99.90
13998;DHT22;7074;51.508;7.018;2023-02-03T02:04:48;10.10;99.90
13998;DHT22;7074;51.508;7.018;2023-02-03T02:07:17;10.10;99.90
13998;DHT22;7074;51.508;7.018;2023-02-03T02:09:45;10.10;99.90
13998;DHT22;7074;51.508;7.018;2023-02-03T02:12:14;10.10;99.90
13998;DHT22;7074;51.508;7.018;2023-02-03T02:14:42;10.10;99.90
13998;DHT22;7074;51.508;7.018;2023-02-03T02:17:17;10.10;99.90
13998;DHT22;7074;51.508;7.018;2023-02-03T02:23:01;10.20;99.90
13998;DHT22;7074;51.508;7.018;2023-02-03T02:25:51;10.20;99.90
13998;DHT22;7074;51.508;7.018;2023-02-03T02:31:38;10.20;99.90
13998;DHT22;7074;51.508;7.018;2023-02-03T02:34:16;10.20;99.90
13998;DHT22;7074;51.508;7.018;2023-02-03T02:36:55;10.20;99.90
13998;DHT22;7074;51.508;7.018;2023-02-03T02:39:31;10.20;99.90
13998;DHT22;7074;51.508;7.018;2023-02-03T02:42:06;10.30;99.90
13998;DHT22;7074;51.508;7.018;2023-02-03T02:44:38;10.30;99.90
13998;DHT22;7074;51.508;7.018;2023-02-03T02:47:15;10.30;99.90
13998;DHT22;7074;51.508;7.018;2023-02-03T02:49:49;10.30;99.90
13998;DHT22;7074;51.508;7.018;2023-02-03T02:52:18;10.20;99.90
13998;DHT22;7074;51.508;7.018;2023-02-03T02:54:51;10.30;99.90
13998;DHT22;7074;51.508;7.018;2023-02-03T02:57:22;10.20;99.90
13998;DHT22;7074;51.508;7.018;2023-02-03T02:59:52;10.20;99.90
13998;DHT22;7074;51.508;7.018;2023-02-03T03:02:21;10.20;99.90
13998;DHT22;7074;51.508;7.018;2023-02-03T03:04:52;10.20;99.90
13998;DHT22;7074;51.508;7.018;2023-02-03T03:07:23;10.20;99.90
13998;DHT22;7074;51.508;7.018;2023-02-03T03:09:55;10.20;99.90
13998;DHT22;7074;51.508;7.018;2023-02-03T03:12:28;10.20;99.90
13998;DHT22;7074;51.508;7.018;2023-02-03T03:15:00;10.20;99.90
13998;DHT22;7074;51.508;7.018;2023-02-03T03:17:33;10.20;99.90
13998;DHT22;7074;51.508;7.018;2023-02-03T03:20:06;10.10;99.90
13998;DHT22;7074;51.508;7.018;2023-02-03T03:22:38;10.10;99.90
13998;DHT22;7074;51.508;7.018;2023-02-03T03:25:12;10.10;99.90
13998;DHT22;7074;51.508;7.018;2023-02-03T03:27:43;10.10;99.90
13998;DHT22;7074;51.508;7.018;2023-02-03T03:30:15;10.10;99.90
13998;DHT22;7074;51.508;7.018;2023-02-03T03:32:45;10.10;99.90
13998;DHT22;7074;51.508;7.018;2023-02-03T03:35:13;10.20;99.90
13998;DHT22;7074;51.508;7.018;2023-02-03T03:37:43;10.20;99.90
13998;DHT22;7074;51.508;7.018;2023-02-03T03:40:20;10.20;99.90
13998;DHT22;7074;51.508;7.018;2023-02-03T03:42:51;10.20;99.90
13998;DHT22;7074;51.508;7.018;2023-02-03T03:45:23;10.20;99.90
13998;DHT22;7074;51.508;7.018;2023-02-03T03:47:55;10.20;99.90
13998;DHT22;7074;51.508;7.018;2023-02-03T03:50:26;10.20;99.90
13998;DHT22;7074;51.508;7.018;2023-02-03T03:52:57;10.20;99.90
13998;DHT22;7074;51.508;7.018;2023-02-03T03:55:28;10.20;99.90
13998;DHT22;7074;51.508;7.018;2023-02-03T03:57:58;10.20;99.90
13998;DHT22;7074;51.508;7.018;2023-02-03T04:00:30;10.20;99.90
13998;DHT22;7074;51.508;7.018;2023-02-03T04:03:04;10.20;99.90
13998;DHT22;7074;51.508;7.018;2023-02-03T04:05:32;10.20;99.90
13998;DHT22;7074;51.508;7.018;2023-02-03T04:08:00;10.20;99.90
13998;DHT22;7074;51.508;7.018;2023-02-03T04:10:31;10.20;99.90
13998;DHT22;7074;51.508;7.018;2023-02-03T04:12:59;10.20;99.90
13998;DHT22;7074;51.508;7.018;2023-02-03T04:15:27;10.20;99.90
13998;DHT22;7074;51.508;7.018;2023-02-03T04:17:55;10.20;99.90
13998;DHT22;7074;51.508;7.018;2023-02-03T04:20:24;10.20;99.90
13998;DHT22;7074;51.508;7.018;2023-02-03T04:22:51;10.20;99.90
13998;DHT22;7074;51.508;7.018;2023-02-03T04:25:18;10.20;99.90
13998;DHT22;7074;51.508;7.018;2023-02-03T04:27:46;10.20;99.90
13998;DHT22;7074;51.508;7.018;2023-02-03T04:30:13;10.20;99.90
13998;DHT22;7074;51.508;7.018;2023-02-03T04:32:43;10.20;99.90
13998;DHT22;7074;51.508;7.018;2023-02-03T04:35:11;10.10;99.90
13998;DHT22;7074;51.508;7.018;2023-02-03T04:37:40;10.20;99.90
13998;DHT22;7074;51.508;7.018;2023-02-03T04:40:09;10.20;99.90
13998;DHT22;7074;51.508;7.018;2023-02-03T04:42:36;10.20;99.90
13998;DHT22;7074;51.508;7.018;2023-02-03T04:45:05;10.20;99.90
13998;DHT22;7074;51.508;7.018;2023-02-03T04:47:32;10.20;99.90
13998;DHT22;7074;51.508;7.018;2023-02-03T04:50:00;10.20;99.90
13998;DHT22;7074;51.508;7.018;2023-02-03T04:52:27;10.20;99.90
13998;DHT22;7074;51.508;7.018;2023-02-03T04:54:56;10.20;99.90
13998;DHT22;7074;51.508;7.018;2023-02-03T04:57:23;10.20;99.90
13998;DHT22;7074;51.508;7.018;2023-02-03T04:59:51;10.20;99.90
13998;DHT22;7074;51.508;7.018;2023-02-03T05:02:18;10.20;99.90
13998;DHT22;7074;51.508;7.018;2023-02-03T05:04:45;10.10;99.90
13998;DHT22;7074;51.508;7.018;2023-02-03T05:07:12;10.20;99.90
13998;DHT22;7074;51.508;7.018;2023-02-03T05:09:40;10.20;99.90
13998;DHT22;7074;51.508;7.018;2023-02-03T05:12:09;10.20;99.90
13998;DHT22;7074;51.508;7.018;2023-02-03T05:14:36;10.20;99.90
13998;DHT22;7074;51.508;7.018;2023-02-03T05:17:03;10.20;99.90
13998;DHT22;7074;51.508;7.018;2023-02-03T05:19:30;10.20;99.90
13998;DHT22;7074;51.508;7.018;2023-02-03T05:21:57;10.20;99.90
13998;DHT22;7074;51.508;7.018;2023-02-03T05:24:25;10.20;99.90
13998;DHT22;7074;51.508;7.018;2023-02-03T05:26:52;10.20;99.90
13998;DHT22;7074;51.508;7.018;2023-02-03T05:29:21;10.20;99.90
13998;DHT22;7074;51.508;7.018;2023-02-03T05:31:48;10.20;99.90
13998;DHT22;7074;51.508;7.018;2023-02-03T05:34:15;10.20;99.90
13998;DHT22;7074;51.508;7.018;2023-02-03T05:36:42;10.20;99.90
13998;DHT22;7074;51.508;7.018;2023-02-03T05:39:10;10.20;99.90
13998;DHT22;7074;51.508;7.018;2023-02-03T05:41:37;10.20;99.90
13998;DHT22;7074;51.508;7.018;2023-02-03T05:44:18;10.20;99.90
13998;DHT22;7074;51.508;7.018;2023-02-03T05:46:48;10.20;99.90
13998;DHT22;7074;51.508;7.018;2023-02-03T05:49:15;10.20;99.90
13998;DHT22;7074;51.508;7.018;2023-02-03T05:51:44;10.20;99.90
13998;DHT22;7074;51.508;7.018;2023-02-03T05:54:12;10.20;99.90
13998;DHT22;7074;51.508;7.018;2023-02-03T05:56:39;10.20;99.90
13998;DHT22;7074;51.508;7.018;2023-02-03T05:59:06;10.20;99.90
13998;DHT22;7074;51.508;7.018;2023-02-03T06:01:34;10.20;99.90
13998;DHT22;7074;51.508;7.018;2023-02-03T06:04:03;10.30;99.90
13998;DHT22;7074;51.508;7.018;2023-02-03T06:06:36;10.20;99.90
13998;DHT22;7074;51.508;7.018;2023-02-03T06:09:05;10.20;99.90
13998;DHT22;7074;51.508;7.018;2023-02-03T06:11:34;10.20;99.90
13998;DHT22;7074;51.508;7.018;2023-02-03T06:14:02;10.20;99.90
13998;DHT22;7074;51.508;7.018;2023-02-03T06:16:29;10.20;99.90
13998;DHT22;7074;51.508;7.018;2023-02-03T06:18:56;10.30;99.90
13998;DHT22;7074;51.508;7.018;2023-02-03T06:21:27;10.20;99.90
13998;DHT22;7074;51.508;7.018;2023-02-03T06:23:55;10.30;99.90
13998;DHT22;7074;51.508;7.018;2023-02-03T06:26:22;10.20;99.90
13998;DHT22;7074;51.508;7.018;2023-02-03T06:28:49;10.30;99.90
13998;DHT22;7074;51.508;7.018;2023-02-03T06:31:17;10.30;99.90
13998;DHT22;7074;51.508;7.018;2023-02-03T06:33:44;10.30;99.90
13998;DHT22;7074;51.508;7.018;2023-02-03T06:36:11;10.30;99.90
13998;DHT22;7074;51.508;7.018;2023-02-03T06:38:40;10.30;99.90
13998;DHT22;7074;51.508;7.018;2023-02-03T06:41:07;10.20;99.90
13998;DHT22;7074;51.508;7.018;2023-02-03T06:43:34;10.30;99.90
13998;DHT22;7074;51.508;7.018;2023-02-03T06:46:01;10.30;99.90
13998;DHT22;7074;51.508;7.018;2023-02-03T06:48:29;10.20;99.90
13998;DHT22;7074;51.508;7.018;2023-02-03T06:51:00;10.20;99.90
13998;DHT22;7074;51.508;7.018;2023-02-03T06:53:27;10.20;99.90
13998;DHT22;7074;51.508;7.018;2023-02-03T06:55:56;10.20;99.90
13998;DHT22;7074;51.508;7.018;2023-02-03T06:58:23;10.20;99.90
13998;DHT22;7074;51.508;7.018;2023-02-03T07:00:54;10.20;99.90
13998;DHT22;7074;51.508;7.018;2023-02-03T07:03:21;10.30;99.90
13998;DHT22;7074;51.508;7.018;2023-02-03T07:05:48;10.30;99.90
13998;DHT22;7074;51.508;7.018;2023-02-03T07:08:15;10.30;99.90
13998;DHT22;7074;51.508;7.018;2023-02-03T07:10:43;10.20;99.90
13998;DHT22;7074;51.508;7.018;2023-02-03T07:13:11;10.20;99.90
13998;DHT22;7074;51.508;7.018;2023-02-03T07:15:39;10.20;99.90
13998;DHT22;7074;51.508;7.018;2023-02-03T07:18:06;10.30;99.90
13998;DHT22;7074;51.508;7.018;2023-02-03T07:20:33;10.30;99.90
13998;DHT22;7074;51.508;7.018;2023-02-03T07:23:00;10.30;99.90
13998;DHT22;7074;51.508;7.018;2023-02-03T07:25:30;10.30;99.90
13998;DHT22;7074;51.508;7.018;2023-02-03T07:28:00;10.30;99.90
13998;DHT22;7074;51.508;7.018;2023-02-03T07:30:29;10.30;99.90
13998;DHT22;7074;51.508;7.018;2023-02-03T07:33:09;10.30;99.90
13998;DHT22;7074;51.508;7.018;2023-02-03T07:35:36;10.30;99.90
13998;DHT22;7074;51.508;7.018;2023-02-03T07:38:03;10.30;99.90
13998;DHT22;7074;51.508;7.018;2023-02-03T07:40:31;10.40;99.90
13998;DHT22;7074;51.508;7.018;2023-02-03T07:43:03;10.30;99.90
13998;DHT22;7074;51.508;7.018;2023-02-03T07:45:35;10.30;99.90
13998;DHT22;7074;51.508;7.018;2023-02-03T07:48:22;10.30;99.90
13998;DHT22;7074;51.508;7.018;2023-02-03T07:50:50;10.40;99.90
13998;DHT22;7074;51.508;7.018;2023-02-03T07:53:19;10.40;99.90
13998;DHT22;7074;51.508;7.018;2023-02-03T07:55:46;10.40;99.90
13998;DHT22;7074;51.508;7.018;2023-02-03T07:58:14;10.40;99.90
13998;DHT22;7074;51.508;7.018;2023-02-03T08:00:43;10.40;99.90
13998;DHT22;7074;51.508;7.018;2023-02-03T08:03:10;10.40;99.90
13998;DHT22;7074;51.508;7.018;2023-02-03T08:05:37;10.40;99.90
13998;DHT22;7074;51.508;7.018;2023-02-03T08:08:04;10.40;99.90
13998;DHT22;7074;51.508;7.018;2023-02-03T08:10:33;10.40;99.90
13998;DHT22;7074;51.508;7.018;2023-02-03T08:13:15;10.40;99.90
13998;DHT22;7074;51.508;7.018;2023-02-03T08:22:47;10.40;99.90
13998;DHT22;7074;51.508;7.018;2023-02-03T08:28:48;10.40;99.90
13998;DHT22;7074;51.508;7.018;2023-02-03T08:31:21;10.40;99.90
13998;DHT22;7074;51.508;7.018;2023-02-03T08:34:00;10.40;99.90
13998;DHT22;7074;51.508;7.018;2023-02-03T08:37:22;10.40;99.90
13998;DHT22;7074;51.508;7.018;2023-02-03T08:43:26;10.50;99.90
13998;DHT22;7074;51.508;7.018;2023-02-03T08:47:02;10.50;99.90
13998;DHT22;7074;51.508;7.018;2023-02-03T09:20:37;10.60;99.90
13998;DHT22;7074;51.508;7.018;2023-02-03T09:23:04;10.60;99.90
13998;DHT22;7074;51.508;7.018;2023-02-03T09:25:32;10.60;99.90
13998;DHT22;7074;51.508;7.018;2023-02-03T09:28:00;10.60;99.90
13998;DHT22;7074;51.508;7.018;2023-02-03T09:30:27;10.60;99.90
13998;DHT22;7074;51.508;7.018;2023-02-03T09:32:54;10.60;99.90
13998;DHT22;7074;51.508;7.018;2023-02-03T09:35:23;10.60;99.90
13998;DHT22;7074;51.508;7.018;2023-02-03T09:37:54;10.60;99.90
13998;DHT22;7074;51.508;7.018;2023-02-03T09:40:25;10.60;99.90
13998;DHT22;7074;51.508;7.018;2023-02-03T09:43:11;10.70;99.90
13998;DHT22;7074;51.508;7.018;2023-02-03T09:45:40;10.70;99.90
13998;DHT22;7074;51.508;7.018;2023-02-03T09:48:11;10.70;99.90
13998;DHT22;7074;51.508;7.018;2023-02-03T09:50:42;10.70;99.90
13998;DHT22;7074;51.508;7.018;2023-02-03T09:53:26;10.80;99.90
13998;DHT22;7074;51.508;7.018;2023-02-03T09:55:55;10.80;99.90
13998;DHT22;7074;51.508;7.018;2023-02-03T09:58:28;10.80;99.90
13998;DHT22;7074;51.508;7.018;2023-02-03T10:01:00;10.80;99.90
13998;DHT22;7074;51.508;7.018;2023-02-03T10:03:35;10.80;99.90
13998;DHT22;7074;51.508;7.018;2023-02-03T10:06:11;10.80;99.90
13998;DHT22;7074;51.508;7.018;2023-02-03T10:09:17;10.90;99.90
13998;DHT22;7074;51.508;7.018;2023-02-03T10:12:00;10.90;99.90
13998;DHT22;7074;51.508;7.018;2023-02-03T10:14:40;10.90;99.90
13998;DHT22;7074;51.508;7.018;2023-02-03T10:17:20;10.90;99.90
13998;DHT22;7074;51.508;7.018;2023-02-03T10:19:57;11.00;99.90
13998;DHT22;7074;51.508;7.018;2023-02-03T10:22:29;10.90;99.90
13998;DHT22;7074;51.508;7.018;2023-02-03T10:25:03;11.00;99.90
13998;DHT22;7074;51.508;7.018;2023-02-03T10:27:32;11.00;99.90
13998;DHT22;7074;51.508;7.018;2023-02-03T10:30:04;11.00;99.90
13998;DHT22;7074;51.508;7.018;2023-02-03T10:32:33;11.00;99.90
13998;DHT22;7074;51.508;7.018;2023-02-03T10:35:00;11.00;99.90
13998;DHT22;7074;51.508;7.018;2023-02-03T10:37:30;11.00;99.90
13998;DHT22;7074;51.508;7.018;2023-02-03T10:40:01;11.00;99.90
13998;DHT22;7074;51.508;7.018;2023-02-03T10:42:29;11.00;99.90
13998;DHT22;7074;51.508;7.018;2023-02-03T10:45:18;11.00;99.90
13998;DHT22;7074;51.508;7.018;2023-02-03T10:47:48;11.00;99.90
13998;DHT22;7074;51.508;7.018;2023-02-03T10:50:18;11.00;99.90
13998;DHT22;7074;51.508;7.018;2023-02-03T10:52:46;11.00;99.90
13998;DHT22;7074;51.508;7.018;2023-02-03T10:55:30;11.00;99.90
13998;DHT22;7074;51.508;7.018;2023-02-03T10:58:07;11.10;99.90
13998;DHT22;7074;51.508;7.018;2023-02-03T11:00:38;11.10;99.90
13998;DHT22;7074;51.508;7.018;2023-02-03T11:03:07;11.10;99.90
13998;DHT22;7074;51.508;7.018;2023-02-03T11:05:41;11.10;99.90
13998;DHT22;7074;51.508;7.018;2023-02-03T11:08:13;11.10;99.90
13998;DHT22;7074;51.508;7.018;2023-02-03T11:10:44;11.10;99.90
13998;DHT22;7074;51.508;7.018;2023-02-03T11:13:18;11.20;99.90
13998;DHT22;7074;51.508;7.018;2023-02-03T11:15:54;11.10;99.90
13998;DHT22;7074;51.508;7.018;2023-02-03T11:21:23;11.20;99.90
13998;DHT22;7074;51.508;7.018;2023-02-03T11:23:55;11.20;99.90
13998;DHT22;7074;51.508;7.018;2023-02-03T11:26:28;11.10;99.90
13998;DHT22;7074;51.508;7.018;2023-02-03T11:28:58;11.20;99.90
13998;DHT22;7074;51.508;7.018;2023-02-03T11:31:27;11.20;99.90
13998;DHT22;7074;51.508;7.018;2023-02-03T11:34:01;11.20;99.90
13998;DHT22;7074;51.508;7.018;2023-02-03T11:36:31;11.10;99.90
13998;DHT22;7074;51.508;7.018;2023-02-03T11:39:20;11.20;99.90
13998;DHT22;7074;51.508;7.018;2023-02-03T11:41:51;11.20;99.90
13998;DHT22;7074;51.508;7.018;2023-02-03T11:44:21;11.30;99.90
13998;DHT22;7074;51.508;7.018;2023-02-03T11:46:52;11.30;99.90
13998;DHT22;7074;51.508;7.018;2023-02-03T11:52:38;11.30;99.90
13998;DHT22;7074;51.508;7.018;2023-02-03T11:55:16;11.30;99.90
13998;DHT22;7074;51.508;7.018;2023-02-03T11:57:55;11.30;99.90
13998;DHT22;7074;51.508;7.018;2023-02-03T12:00:32;11.30;99.90
13998;DHT22;7074;51.508;7.018;2023-02-03T12:07:48;11.40;99.90
13998;DHT22;7074;51.508;7.018;2023-02-03T12:10:35;11.40;99.90
13998;DHT22;7074;51.508;7.018;2023-02-03T12:13:18;11.30;99.90
13998;DHT22;7074;51.508;7.018;2023-02-03T12:16:08;11.40;99.90
13998;DHT22;7074;51.508;7.018;2023-02-03T12:18:47;11.30;99.90
13998;DHT22;7074;51.508;7.018;2023-02-03T12:21:41;11.40;99.90
13998;DHT22;7074;51.508;7.018;2023-02-03T12:24:18;11.30;99.90
13998;DHT22;7074;51.508;7.018;2023-02-03T12:26:54;11.40;99.90
13998;DHT22;7074;51.508;7.018;2023-02-03T12:29:28;11.40;99.90
13998;DHT22;7074;51.508;7.018;2023-02-03T12:32:02;11.30;99.90
13998;DHT22;7074;51.508;7.018;2023-02-03T12:34:33;11.30;99.90
13998;DHT22;7074;51.508;7.018;2023-02-03T12:37:06;11.30;99.90
13998;DHT22;7074;51.508;7.018;2023-02-03T12:39:39;11.30;99.90
13998;DHT22;7074;51.508;7.018;2023-02-03T12:42:14;11.30;99.90
13998;DHT22;7074;51.508;7.018;2023-02-03T12:44:49;11.40;99.90
13998;DHT22;7074;51.508;7.018;2023-02-03T12:47:23;11.40;99.90
13998;DHT22;7074;51.508;7.018;2023-02-03T12:49:55;11.50;99.90
13998;DHT22;7074;51.508;7.018;2023-02-03T12:52:26;11.50;99.90
13998;DHT22;7074;51.508;7.018;2023-02-03T12:55:04;11.50;99.90
13998;DHT22;7074;51.508;7.018;2023-02-03T12:57:56;11.50;99.90
13998;DHT22;7074;51.508;7.018;2023-02-03T13:00:34;11.40;99.90
13998;DHT22;7074;51.508;7.018;2023-02-03T13:03:12;11.50;99.90
13998;DHT22;7074;51.508;7.018;2023-02-03T13:05:46;11.50;99.90
13998;DHT22;7074;51.508;7.018;2023-02-03T13:08:21;11.50;99.90
13998;DHT22;7074;51.508;7.018;2023-02-03T13:10:54;11.50;99.90
13998;DHT22;7074;51.508;7.018;2023-02-03T13:13:28;11.50;99.90
13998;DHT22;7074;51.508;7.018;2023-02-03T13:16:01;11.50;99.90
13998;DHT22;7074;51.508;7.018;2023-02-03T13:18:35;11.50;99.90
13998;DHT22;7074;51.508;7.018;2023-02-03T13:21:03;11.60;99.90
13998;DHT22;7074;51.508;7.018;2023-02-03T13:23:31;11.50;99.90
13998;DHT22;7074;51.508;7.018;2023-02-03T13:26:16;11.60;99.90
13998;DHT22;7074;51.508;7.018;2023-02-03T13:28:56;11.60;99.90
13998;DHT22;7074;51.508;7.018;2023-02-03T13:31:40;11.60;99.90
13998;DHT22;7074;51.508;7.018;2023-02-03T13:34:26;11.60;99.90
13998;DHT22;7074;51.508;7.018;2023-02-03T13:37:20;11.70;99.90
13998;DHT22;7074;51.508;7.018;2023-02-03T13:40:01;11.60;99.90
13998;DHT22;7074;51.508;7.018;2023-02-03T13:42:32;11.60;99.90
13998;DHT22;7074;51.508;7.018;2023-02-03T13:45:11;11.70;99.90
13998;DHT22;7074;51.508;7.018;2023-02-03T13:47:45;11.70;99.90
13998;DHT22;7074;51.508;7.018;2023-02-03T13:50:21;11.70;99.90
13998;DHT22;7074;51.508;7.018;2023-02-03T13:52:58;11.60;99.90
13998;DHT22;7074;51.508;7.018;2023-02-03T13:55:29;11.60;99.90
13998;DHT22;7074;51.508;7.018;2023-02-03T14:01:40;11.50;99.90
13998;DHT22;7074;51.508;7.018;2023-02-03T14:07:28;11.00;99.90
13998;DHT22;7074;51.508;7.018;2023-02-03T14:10:15;11.00;99.90
13998;DHT22;7074;51.508;7.018;2023-02-03T14:12:57;10.80;99.90
13998;DHT22;7074;51.508;7.018;2023-02-03T14:15:38;10.70;99.90
13998;DHT22;7074;51.508;7.018;2023-02-03T14:18:31;10.60;99.90
13998;DHT22;7074;51.508;7.018;2023-02-03T14:24:01;10.50;99.90
13998;DHT22;7074;51.508;7.018;2023-02-03T14:26:40;10.50;99.90
13998;DHT22;7074;51.508;7.018;2023-02-03T14:29:45;10.50;99.90
13998;DHT22;7074;51.508;7.018;2023-02-03T14:32:51;10.50;99.90
13998;DHT22;7074;51.508;7.018;2023-02-03T14:35:30;10.60;99.90
13998;DHT22;7074;51.508;7.018;2023-02-03T14:38:02;10.50;99.90
13998;DHT22;7074;51.508;7.018;2023-02-03T14:41:10;10.50;99.90
13998;DHT22;7074;51.508;7.018;2023-02-03T14:44:09;10.60;99.90
13998;DHT22;7074;51.508;7.018;2023-02-03T14:47:09;10.50;99.90
13998;DHT22;7074;51.508;7.018;2023-02-03T14:49:51;10.60;99.90
13998;DHT22;7074;51.508;7.018;2023-02-03T14:53:01;10.50;99.90
13998;DHT22;7074;51.508;7.018;2023-02-03T14:59:08;10.50;99.90
13998;DHT22;7074;51.508;7.018;2023-02-03T15:02:08;10.60;99.90
13998;DHT22;7074;51.508;7.018;2023-02-03T15:04:35;10.50;99.90
13998;DHT22;7074;51.508;7.018;2023-02-03T15:07:02;10.60;99.90
13998;DHT22;7074;51.508;7.018;2023-02-03T15:09:33;10.60;99.90
13998;DHT22;7074;51.508;7.018;2023-02-03T15:12:15;10.60;99.90
13998;DHT22;7074;51.508;7.018;2023-02-03T15:14:43;10.60;99.90
13998;DHT22;7074;51.508;7.018;2023-02-03T15:17:17;10.60;99.90
13998;DHT22;7074;51.508;7.018;2023-02-03T15:19:47;10.60;99.90
13998;DHT22;7074;51.508;7.018;2023-02-03T15:22:19;10.70;99.90
13998;DHT22;7074;51.508;7.018;2023-02-03T15:24:46;10.60;99.90
13998;DHT22;7074;51.508;7.018;2023-02-03T15:27:20;10.60;99.90
13998;DHT22;7074;51.508;7.018;2023-02-03T15:29:49;10.60;99.90
13998;DHT22;7074;51.508;7.018;2023-02-03T15:32:20;10.60;99.90
13998;DHT22;7074;51.508;7.018;2023-02-03T15:34:50;10.70;99.90
13998;DHT22;7074;51.508;7.018;2023-02-03T15:37:21;10.70;99.90
13998;DHT22;7074;51.508;7.018;2023-02-03T15:39:56;10.80;99.90
13998;DHT22;7074;51.508;7.018;2023-02-03T15:42:30;10.70;99.90
13998;DHT22;7074;51.508;7.018;2023-02-03T15:45:05;10.70;99.90
13998;DHT22;7074;51.508;7.018;2023-02-03T15:47:35;10.70;99.90
13998;DHT22;7074;51.508;7.018;2023-02-03T15:50:23;10.70;99.90
13998;DHT22;7074;51.508;7.018;2023-02-03T15:52:53;10.70;99.90
13998;DHT22;7074;51.508;7.018;2023-02-03T15:55:28;10.70;99.90
13998;DHT22;7074;51.508;7.018;2023-02-03T15:57:58;10.60;99.90
13998;DHT22;7074;51.508;7.018;2023-02-03T16:00:32;10.60;99.90
13998;DHT22;7074;51.508;7.018;2023-02-03T16:03:01;10.60;99.90
13998;DHT22;7074;51.508;7.018;2023-02-03T16:07:43;10.60;99.90
13998;DHT22;7074;51.508;7.018;2023-02-03T16:10:21;10.60;99.90
13998;DHT22;7074;51.508;7.018;2023-02-03T16:13:41;10.60;99.90
13998;DHT22;7074;51.508;7.018;2023-02-03T16:23:41;10.50;99.90
13998;DHT22;7074;51.508;7.018;2023-02-03T16:26:19;10.40;99.90
13998;DHT22;7074;51.508;7.018;2023-02-03T16:29:12;10.40;99.90
13998;DHT22;7074;51.508;7.018;2023-02-03T16:32:18;10.40;99.90
13998;DHT22;7074;51.508;7.018;2023-02-03T16:35:08;10.40;99.90
13998;DHT22;7074;51.508;7.018;2023-02-03T16:37:53;10.50;99.90
13998;DHT22;7074;51.508;7.018;2023-02-03T16:40:37;10.40;99.90
13998;DHT22;7074;51.508;7.018;2023-02-03T16:43:22;10.40;99.90
13998;DHT22;7074;51.508;7.018;2023-02-03T16:46:10;10.40;99.90
13998;DHT22;7074;51.508;7.018;2023-02-03T16:48:54;10.40;99.90
13998;DHT22;7074;51.508;7.018;2023-02-03T16:51:41;10.40;99.90
13998;DHT22;7074;51.508;7.018;2023-02-03T16:54:10;10.40;99.90
13998;DHT22;7074;51.508;7.018;2023-02-03T16:56:39;10.40;99.90
13998;DHT22;7074;51.508;7.018;2023-02-03T16:59:06;10.40;99.90
13998;DHT22;7074;51.508;7.018;2023-02-03T17:01:34;10.40;99.90
13998;DHT22;7074;51.508;7.018;2023-02-03T17:04:01;10.40;99.90
13998;DHT22;7074;51.508;7.018;2023-02-03T17:06:30;10.40;99.90
13998;DHT22;7074;51.508;7.018;2023-02-03T17:09:00;10.40;99.90
13998;DHT22;7074;51.508;7.018;2023-02-03T17:11:28;10.40;99.90
13998;DHT22;7074;51.508;7.018;2023-02-03T17:13:56;10.30;99.90
13998;DHT22;7074;51.508;7.018;2023-02-03T17:16:25;10.30;99.90
13998;DHT22;7074;51.508;7.018;2023-02-03T17:18:52;10.30;99.90
13998;DHT22;7074;51.508;7.018;2023-02-03T17:21:22;10.40;99.90
13998;DHT22;7074;51.508;7.018;2023-02-03T17:23:50;10.30;99.90
13998;DHT22;7074;51.508;7.018;2023-02-03T17:26:19;10.30;99.90
13998;DHT22;7074;51.508;7.018;2023-02-03T17:28:46;10.30;99.90
13998;DHT22;7074;51.508;7.018;2023-02-03T17:31:15;10.30;99.90
13998;DHT22;7074;51.508;7.018;2023-02-03T17:33:43;10.30;99.90
13998;DHT22;7074;51.508;7.018;2023-02-03T17:36:11;10.30;99.90
13998;DHT22;7074;51.508;7.018;2023-02-03T17:38:41;10.40;99.90
13998;DHT22;7074;51.508;7.018;2023-02-03T17:41:10;10.30;99.90
13998;DHT22;7074;51.508;7.018;2023-02-03T17:43:39;10.30;99.90
13998;DHT22;7074;51.508;7.018;2023-02-03T17:46:07;10.30;99.90